sensor_id;sensor_type;location;lat;lon;timestamp;P1;durP1;ratioP1;P2;durP2;ratioP2
1719;SDS011;857;52.872;9.692;2023-04-24T00:02:00;5.23;;;4.73;;
1719;SDS011;857;52.872;9.692;2023-04-24T00:04:28;7.40;;;5.17;;
1719;SDS011;857;52.872;9.692;2023-04-24T00:06:57;6.47;;;5.20;;
1719;SDS011;857;52.872;9.692;2023-04-24T00:09:26;5.30;;;4.80;;
1719;SDS011;857;52.872;9.692;2023-04-24T00:11:54;6.10;;;4.93;;
1719;SDS011;857;52.872;9.692;2023-04-24T00:14:22;5.20;;;4.43;;
1719;SDS011;857;52.872;9.692;2023-04-24T00:16:49;4.20;;;3.80;;
1719;SDS011;857;52.872;9.692;2023-04-24T00:19:17;4.23;;;3.83;;
1719;SDS011;857;52.872;9.692;2023-04-24T00:21:46;4.17;;;3.77;;
1719;SDS011;857;52.872;9.692;2023-04-24T00:24:16;4.20;;;3.80;;
1719;SDS011;857;52.872;9.692;2023-04-24T00:26:45;3.60;;;3.20;;
1719;SDS011;857;52.872;9.692;2023-04-24T00:29:13;4.03;;;3.70;;
1719;SDS011;857;52.872;9.692;2023-04-24T00:31:40;4.67;;;3.53;;
1719;SDS011;857;52.872;9.692;2023-04-24T00:34:08;5.60;;;3.60;;
1719;SDS011;857;52.872;9.692;2023-04-24T00:36:37;4.53;;;2.83;;
1719;SDS011;857;52.872;9.692;2023-04-24T00:39:04;3.40;;;3.07;;
1719;SDS011;857;52.872;9.692;2023-04-24T00:41:34;3.17;;;2.90;;
1719;SDS011;857;52.872;9.692;2023-04-24T00:44:03;3.10;;;2.50;;
1719;SDS011;857;52.872;9.692;2023-04-24T00:46:31;3.23;;;2.93;;
1719;SDS011;857;52.872;9.692;2023-04-24T00:48:59;2.63;;;2.43;;
1719;SDS011;857;52.872;9.692;2023-04-24T00:51:26;3.13;;;2.30;;
1719;SDS011;857;52.872;9.692;2023-04-24T00:53:54;2.00;;;1.90;;
1719;SDS011;857;52.872;9.692;2023-04-24T00:56:22;2.10;;;1.90;;
1719;SDS011;857;52.872;9.692;2023-04-24T00:58:49;2.23;;;2.07;;
1719;SDS011;857;52.872;9.692;2023-04-24T01:01:19;1.97;;;1.77;;
1719;SDS011;857;52.872;9.692;2023-04-24T01:03:47;2.50;;;2.20;;
1719;SDS011;857;52.872;9.692;2023-04-24T01:06:16;2.50;;;2.30;;
1719;SDS011;857;52.872;9.692;2023-04-24T01:08:44;2.33;;;1.87;;
1719;SDS011;857;52.872;9.692;2023-04-24T01:11:13;2.20;;;1.80;;
1719;SDS011;857;52.872;9.692;2023-04-24T01:13:40;3.20;;;1.87;;
1719;SDS011;857;52.872;9.692;2023-04-24T01:16:09;2.07;;;1.73;;
1719;SDS011;857;52.872;9.692;2023-04-24T01:18:38;3.47;;;2.23;;
1719;SDS011;857;52.872;9.692;2023-04-24T01:21:06;2.80;;;1.70;;
1719;SDS011;857;52.872;9.692;2023-04-24T01:23:36;2.03;;;1.83;;
1719;SDS011;857;52.872;9.692;2023-04-24T01:26:04;1.87;;;1.70;;
1719;SDS011;857;52.872;9.692;2023-04-24T01:28:32;1.77;;;1.60;;
1719;SDS011;857;52.872;9.692;2023-04-24T01:30:59;5.07;;;1.90;;
1719;SDS011;857;52.872;9.692;2023-04-24T01:33:27;1.80;;;1.70;;
1719;SDS011;857;52.872;9.692;2023-04-24T01:35:55;1.97;;;1.77;;
1719;SDS011;857;52.872;9.692;2023-04-24T01:38:22;1.70;;;1.60;;
1719;SDS011;857;52.872;9.692;2023-04-24T01:40:52;1.90;;;1.70;;
1719;SDS011;857;52.872;9.692;2023-04-24T01:43:20;2.00;;;1.80;;
1719;SDS011;857;52.872;9.692;2023-04-24T01:45:47;4.80;;;1.90;;
1719;SDS011;857;52.872;9.692;2023-04-24T01:48:15;1.70;;;1.60;;
1719;SDS011;857;52.872;9.692;2023-04-24T01:50:43;1.50;;;1.33;;
1719;SDS011;857;52.872;9.692;2023-04-24T01:53:11;2.00;;;1.80;;
1719;SDS011;857;52.872;9.692;2023-04-24T01:55:39;3.10;;;2.00;;
1719;SDS011;857;52.872;9.692;2023-04-24T01:58:08;2.13;;;1.93;;
1719;SDS011;857;52.872;9.692;2023-04-24T02:00:35;2.13;;;1.93;;
1719;SDS011;857;52.872;9.692;2023-04-24T02:03:03;1.97;;;1.40;;
1719;SDS011;857;52.872;9.692;2023-04-24T02:05:31;1.67;;;1.57;;
1719;SDS011;857;52.872;9.692;2023-04-24T02:07:59;1.87;;;1.77;;
1719;SDS011;857;52.872;9.692;2023-04-24T02:10:26;1.87;;;1.30;;
1719;SDS011;857;52.872;9.692;2023-04-24T02:12:54;1.60;;;1.40;;
1719;SDS011;857;52.872;9.692;2023-04-24T02:15:25;1.10;;;1.00;;
1719;SDS011;857;52.872;9.692;2023-04-24T02:17:52;1.80;;;1.40;;
1719;SDS011;857;52.872;9.692;2023-04-24T02:20:20;1.30;;;1.20;;
1719;SDS011;857;52.872;9.692;2023-04-24T02:22:48;1.50;;;1.40;;
1719;SDS011;857;52.872;9.692;2023-04-24T02:25:17;2.10;;;1.30;;
1719;SDS011;857;52.872;9.692;2023-04-24T02:27:45;1.50;;;1.30;;
1719;SDS011;857;52.872;9.692;2023-04-24T02:30:13;1.60;;;1.40;;
1719;SDS011;857;52.872;9.692;2023-04-24T02:32:42;2.27;;;1.20;;
1719;SDS011;857;52.872;9.692;2023-04-24T02:35:10;1.53;;;1.20;;
1719;SDS011;857;52.872;9.692;2023-04-24T02:37:38;1.47;;;1.10;;
1719;SDS011;857;52.872;9.692;2023-04-24T02:40:06;3.23;;;1.20;;
1719;SDS011;857;52.872;9.692;2023-04-24T02:42:34;1.07;;;1.00;;
1719;SDS011;857;52.872;9.692;2023-04-24T02:45:02;1.50;;;1.40;;
1719;SDS011;857;52.872;9.692;2023-04-24T02:47:30;1.30;;;1.20;;
1719;SDS011;857;52.872;9.692;2023-04-24T02:50:00;1.17;;;1.07;;
1719;SDS011;857;52.872;9.692;2023-04-24T02:52:28;1.40;;;1.20;;
1719;SDS011;857;52.872;9.692;2023-04-24T02:54:56;1.10;;;1.00;;
1719;SDS011;857;52.872;9.692;2023-04-24T02:57:24;1.40;;;1.30;;
1719;SDS011;857;52.872;9.692;2023-04-24T02:59:51;1.50;;;1.40;;
1719;SDS011;857;52.872;9.692;2023-04-24T03:02:19;1.53;;;0.90;;
1719;SDS011;857;52.872;9.692;2023-04-24T03:04:47;1.30;;;1.20;;
1719;SDS011;857;52.872;9.692;2023-04-24T03:07:16;1.20;;;1.10;;
1719;SDS011;857;52.872;9.692;2023-04-24T03:09:46;1.20;;;1.10;;
1719;SDS011;857;52.872;9.692;2023-04-24T03:12:14;1.87;;;1.10;;
1719;SDS011;857;52.872;9.692;2023-04-24T03:14:43;1.20;;;1.10;;
1719;SDS011;857;52.872;9.692;2023-04-24T03:17:11;1.10;;;1.00;;
1719;SDS011;857;52.872;9.692;2023-04-24T03:19:38;1.30;;;1.03;;
1719;SDS011;857;52.872;9.692;2023-04-24T03:22:09;1.20;;;1.10;;
1719;SDS011;857;52.872;9.692;2023-04-24T03:24:40;0.97;;;0.90;;
1719;SDS011;857;52.872;9.692;2023-04-24T03:27:07;1.13;;;1.00;;
1719;SDS011;857;52.872;9.692;2023-04-24T03:30:13;0.80;;;0.80;;
1719;SDS011;857;52.872;9.692;2023-04-24T03:32:47;1.80;;;1.37;;
1719;SDS011;857;52.872;9.692;2023-04-24T03:35:19;1.00;;;0.90;;
1719;SDS011;857;52.872;9.692;2023-04-24T03:37:48;1.53;;;0.80;;
1719;SDS011;857;52.872;9.692;2023-04-24T03:40:51;0.87;;;0.80;;
1719;SDS011;857;52.872;9.692;2023-04-24T03:43:33;1.23;;;1.00;;
1719;SDS011;857;52.872;9.692;2023-04-24T03:46:01;1.17;;;1.03;;
1719;SDS011;857;52.872;9.692;2023-04-24T03:48:32;1.37;;;0.93;;
1719;SDS011;857;52.872;9.692;2023-04-24T03:51:01;0.80;;;0.80;;
1719;SDS011;857;52.872;9.692;2023-04-24T03:53:30;1.10;;;1.00;;
1719;SDS011;857;52.872;9.692;2023-04-24T03:56:00;1.03;;;0.90;;
1719;SDS011;857;52.872;9.692;2023-04-24T03:58:29;1.00;;;0.90;;
1719;SDS011;857;52.872;9.692;2023-04-24T04:00:57;0.63;;;0.63;;
1719;SDS011;857;52.872;9.692;2023-04-24T04:03:42;1.17;;;1.07;;
1719;SDS011;857;52.872;9.692;2023-04-24T04:06:10;2.33;;;0.90;;
1719;SDS011;857;52.872;9.692;2023-04-24T04:08:38;1.33;;;0.90;;
1719;SDS011;857;52.872;9.692;2023-04-24T04:11:09;1.47;;;0.67;;
1719;SDS011;857;52.872;9.692;2023-04-24T04:13:36;1.30;;;1.00;;
1719;SDS011;857;52.872;9.692;2023-04-24T04:16:04;2.10;;;1.07;;
1719;SDS011;857;52.872;9.692;2023-04-24T04:18:32;2.40;;;0.87;;
1719;SDS011;857;52.872;9.692;2023-04-24T04:21:00;1.43;;;0.90;;
1719;SDS011;857;52.872;9.692;2023-04-24T04:23:28;1.13;;;1.00;;
1719;SDS011;857;52.872;9.692;2023-04-24T04:26:15;1.73;;;1.43;;
1719;SDS011;857;52.872;9.692;2023-04-24T04:29:10;2.07;;;1.27;;
1719;SDS011;857;52.872;9.692;2023-04-24T04:31:42;1.37;;;1.27;;
1719;SDS011;857;52.872;9.692;2023-04-24T04:34:12;1.13;;;1.03;;
1719;SDS011;857;52.872;9.692;2023-04-24T04:36:40;1.40;;;1.00;;
1719;SDS011;857;52.872;9.692;2023-04-24T04:39:32;1.53;;;1.10;;
1719;SDS011;857;52.872;9.692;2023-04-24T04:42:04;1.30;;;1.20;;
1719;SDS011;857;52.872;9.692;2023-04-24T04:44:38;2.03;;;1.43;;
1719;SDS011;857;52.872;9.692;2023-04-24T04:47:08;1.80;;;1.13;;
1719;SDS011;857;52.872;9.692;2023-04-24T04:49:37;5.40;;;1.50;;
1719;SDS011;857;52.872;9.692;2023-04-24T04:52:09;1.50;;;1.40;;
1719;SDS011;857;52.872;9.692;2023-04-24T04:54:37;1.87;;;1.67;;
1719;SDS011;857;52.872;9.692;2023-04-24T04:57:06;1.30;;;1.20;;
1719;SDS011;857;52.872;9.692;2023-04-24T04:59:35;1.70;;;1.50;;
1719;SDS011;857;52.872;9.692;2023-04-24T05:02:08;1.70;;;1.57;;
1719;SDS011;857;52.872;9.692;2023-04-24T05:04:36;1.47;;;1.37;;
1719;SDS011;857;52.872;9.692;2023-04-24T05:07:03;1.27;;;1.17;;
1719;SDS011;857;52.872;9.692;2023-04-24T05:09:33;1.27;;;1.17;;
1719;SDS011;857;52.872;9.692;2023-04-24T05:12:03;2.20;;;1.60;;
1719;SDS011;857;52.872;9.692;2023-04-24T05:14:37;1.70;;;1.27;;
1719;SDS011;857;52.872;9.692;2023-04-24T05:17:05;1.30;;;1.20;;
1719;SDS011;857;52.872;9.692;2023-04-24T05:19:33;1.40;;;1.23;;
1719;SDS011;857;52.872;9.692;2023-04-24T05:22:03;1.47;;;1.27;;
1719;SDS011;857;52.872;9.692;2023-04-24T05:24:34;1.47;;;1.30;;
1719;SDS011;857;52.872;9.692;2023-04-24T05:27:28;1.10;;;1.00;;
1719;SDS011;857;52.872;9.692;2023-04-24T05:29:57;1.60;;;1.30;;
1719;SDS011;857;52.872;9.692;2023-04-24T05:32:25;1.30;;;1.20;;
1719;SDS011;857;52.872;9.692;2023-04-24T05:34:54;1.17;;;1.00;;
1719;SDS011;857;52.872;9.692;2023-04-24T05:37:22;1.17;;;1.00;;
1719;SDS011;857;52.872;9.692;2023-04-24T05:39:50;1.80;;;1.10;;
1719;SDS011;857;52.872;9.692;2023-04-24T05:42:17;1.50;;;1.40;;
1719;SDS011;857;52.872;9.692;2023-04-24T05:44:45;1.97;;;1.00;;
1719;SDS011;857;52.872;9.692;2023-04-24T05:47:14;1.20;;;1.10;;
1719;SDS011;857;52.872;9.692;2023-04-24T05:49:42;1.60;;;1.30;;
1719;SDS011;857;52.872;9.692;2023-04-24T05:52:10;1.47;;;1.20;;
1719;SDS011;857;52.872;9.692;2023-04-24T05:54:39;1.50;;;1.00;;
1719;SDS011;857;52.872;9.692;2023-04-24T05:57:08;1.20;;;1.10;;
1719;SDS011;857;52.872;9.692;2023-04-24T05:59:58;1.23;;;1.00;;
1719;SDS011;857;52.872;9.692;2023-04-24T06:02:27;2.50;;;1.30;;
1719;SDS011;857;52.872;9.692;2023-04-24T06:04:59;1.23;;;1.03;;
1719;SDS011;857;52.872;9.692;2023-04-24T06:07:27;1.53;;;1.00;;
1719;SDS011;857;52.872;9.692;2023-04-24T06:09:55;1.30;;;1.20;;
1719;SDS011;857;52.872;9.692;2023-04-24T06:12:23;1.43;;;1.00;;
1719;SDS011;857;52.872;9.692;2023-04-24T06:15:01;1.23;;;1.13;;
1719;SDS011;857;52.872;9.692;2023-04-24T06:18:03;2.23;;;1.30;;
1719;SDS011;857;52.872;9.692;2023-04-24T06:20:31;1.50;;;1.07;;
1719;SDS011;857;52.872;9.692;2023-04-24T06:23:00;1.53;;;1.43;;
1719;SDS011;857;52.872;9.692;2023-04-24T06:25:28;1.57;;;1.30;;
1719;SDS011;857;52.872;9.692;2023-04-24T06:27:56;2.20;;;1.37;;
1719;SDS011;857;52.872;9.692;2023-04-24T06:30:24;1.60;;;1.33;;
1719;SDS011;857;52.872;9.692;2023-04-24T06:32:52;0.83;;;0.80;;
1719;SDS011;857;52.872;9.692;2023-04-24T06:35:21;1.47;;;1.37;;
1719;SDS011;857;52.872;9.692;2023-04-24T06:37:49;1.67;;;1.57;;
1719;SDS011;857;52.872;9.692;2023-04-24T06:40:17;1.77;;;1.60;;
1719;SDS011;857;52.872;9.692;2023-04-24T06:42:45;2.17;;;1.90;;
1719;SDS011;857;52.872;9.692;2023-04-24T06:45:13;2.50;;;2.30;;
1719;SDS011;857;52.872;9.692;2023-04-24T06:47:41;1.67;;;1.50;;
1719;SDS011;857;52.872;9.692;2023-04-24T06:50:09;2.60;;;2.40;;
1719;SDS011;857;52.872;9.692;2023-04-24T06:52:38;3.60;;;2.00;;
1719;SDS011;857;52.872;9.692;2023-04-24T06:55:06;2.90;;;2.70;;
1719;SDS011;857;52.872;9.692;2023-04-24T06:57:34;3.73;;;1.67;;
1719;SDS011;857;52.872;9.692;2023-04-24T07:00:02;3.07;;;2.77;;
1719;SDS011;857;52.872;9.692;2023-04-24T07:02:30;1.57;;;1.47;;
1719;SDS011;857;52.872;9.692;2023-04-24T07:04:58;3.33;;;2.73;;
1719;SDS011;857;52.872;9.692;2023-04-24T07:07:26;4.00;;;3.07;;
1719;SDS011;857;52.872;9.692;2023-04-24T07:09:56;3.47;;;2.90;;
1719;SDS011;857;52.872;9.692;2023-04-24T07:12:23;4.10;;;2.70;;
1719;SDS011;857;52.872;9.692;2023-04-24T07:14:51;3.90;;;3.50;;
1719;SDS011;857;52.872;9.692;2023-04-24T07:17:19;2.80;;;2.60;;
1719;SDS011;857;52.872;9.692;2023-04-24T07:19:47;4.87;;;3.13;;
1719;SDS011;857;52.872;9.692;2023-04-24T07:22:15;4.10;;;3.70;;
1719;SDS011;857;52.872;9.692;2023-04-24T07:24:43;4.47;;;3.77;;
1719;SDS011;857;52.872;9.692;2023-04-24T07:27:12;4.60;;;3.73;;
1719;SDS011;857;52.872;9.692;2023-04-24T07:29:40;6.00;;;5.27;;
1719;SDS011;857;52.872;9.692;2023-04-24T07:32:08;5.07;;;4.57;;
1719;SDS011;857;52.872;9.692;2023-04-24T07:34:35;7.00;;;5.77;;
1719;SDS011;857;52.872;9.692;2023-04-24T07:37:03;8.73;;;6.57;;
1719;SDS011;857;52.872;9.692;2023-04-24T07:39:31;7.80;;;6.20;;
1719;SDS011;857;52.872;9.692;2023-04-24T07:41:59;9.10;;;6.80;;
1719;SDS011;857;52.872;9.692;2023-04-24T07:44:29;8.10;;;6.77;;
1719;SDS011;857;52.872;9.692;2023-04-24T07:46:57;5.63;;;5.10;;
1719;SDS011;857;52.872;9.692;2023-04-24T07:49:25;7.90;;;5.60;;
1719;SDS011;857;52.872;9.692;2023-04-24T07:51:53;5.50;;;3.10;;
1719;SDS011;857;52.872;9.692;2023-04-24T07:54:21;7.93;;;5.50;;
1719;SDS011;857;52.872;9.692;2023-04-24T07:56:48;6.10;;;4.90;;
1719;SDS011;857;52.872;9.692;2023-04-24T07:59:16;6.23;;;4.47;;
1719;SDS011;857;52.872;9.692;2023-04-24T08:01:45;6.77;;;5.63;;
1719;SDS011;857;52.872;9.692;2023-04-24T08:04:13;7.57;;;5.80;;
1719;SDS011;857;52.872;9.692;2023-04-24T08:06:41;8.40;;;6.77;;
1719;SDS011;857;52.872;9.692;2023-04-24T08:09:08;8.17;;;5.83;;
1719;SDS011;857;52.872;9.692;2023-04-24T08:11:36;3.53;;;2.77;;
1719;SDS011;857;52.872;9.692;2023-04-24T08:14:04;3.30;;;3.00;;
1719;SDS011;857;52.872;9.692;2023-04-24T08:16:32;9.03;;;6.60;;
1719;SDS011;857;52.872;9.692;2023-04-24T08:19:01;8.83;;;6.47;;
1719;SDS011;857;52.872;9.692;2023-04-24T08:21:28;9.23;;;6.47;;
1719;SDS011;857;52.872;9.692;2023-04-24T08:23:57;9.37;;;6.27;;
1719;SDS011;857;52.872;9.692;2023-04-24T08:26:25;6.97;;;5.50;;
1719;SDS011;857;52.872;9.692;2023-04-24T08:28:52;7.53;;;6.50;;
1719;SDS011;857;52.872;9.692;2023-04-24T08:31:20;9.47;;;7.07;;
1719;SDS011;857;52.872;9.692;2023-04-24T08:33:48;9.80;;;7.40;;
1719;SDS011;857;52.872;9.692;2023-04-24T08:36:17;4.33;;;3.53;;
1719;SDS011;857;52.872;9.692;2023-04-24T08:38:45;8.13;;;6.00;;
1719;SDS011;857;52.872;9.692;2023-04-24T08:41:13;9.07;;;7.40;;
1719;SDS011;857;52.872;9.692;2023-04-24T08:43:42;10.00;;;7.43;;
1719;SDS011;857;52.872;9.692;2023-04-24T08:46:10;9.10;;;7.33;;
1719;SDS011;857;52.872;9.692;2023-04-24T08:48:38;9.63;;;7.00;;
1719;SDS011;857;52.872;9.692;2023-04-24T08:51:06;9.20;;;7.07;;
1719;SDS011;857;52.872;9.692;2023-04-24T08:53:36;11.30;;;8.07;;
1719;SDS011;857;52.872;9.692;2023-04-24T08:56:04;8.87;;;6.77;;
1719;SDS011;857;52.872;9.692;2023-04-24T08:58:31;11.40;;;8.27;;
1719;SDS011;857;52.872;9.692;2023-04-24T09:00:59;9.23;;;7.10;;
1719;SDS011;857;52.872;9.692;2023-04-24T09:03:27;10.43;;;7.13;;
1719;SDS011;857;52.872;9.692;2023-04-24T09:05:55;10.97;;;7.00;;
1719;SDS011;857;52.872;9.692;2023-04-24T09:08:24;10.20;;;6.37;;
1719;SDS011;857;52.872;9.692;2023-04-24T09:10:54;9.20;;;6.77;;
1719;SDS011;857;52.872;9.692;2023-04-24T09:13:23;6.97;;;5.33;;
1719;SDS011;857;52.872;9.692;2023-04-24T09:15:51;9.07;;;6.60;;
1719;SDS011;857;52.872;9.692;2023-04-24T09:18:19;7.80;;;5.50;;
1719;SDS011;857;52.872;9.692;2023-04-24T09:20:56;9.70;;;7.07;;
1719;SDS011;857;52.872;9.692;2023-04-24T09:23:26;7.40;;;6.00;;
1719;SDS011;857;52.872;9.692;2023-04-24T09:25:55;7.30;;;5.83;;
1719;SDS011;857;52.872;9.692;2023-04-24T09:28:27;10.00;;;7.03;;
1719;SDS011;857;52.872;9.692;2023-04-24T09:31:03;8.53;;;6.60;;
1719;SDS011;857;52.872;9.692;2023-04-24T09:33:31;7.87;;;5.17;;
1719;SDS011;857;52.872;9.692;2023-04-24T09:35:58;8.47;;;7.00;;
1719;SDS011;857;52.872;9.692;2023-04-24T09:38:36;8.73;;;6.63;;
1719;SDS011;857;52.872;9.692;2023-04-24T09:41:06;9.47;;;6.07;;
1719;SDS011;857;52.872;9.692;2023-04-24T09:43:34;6.83;;;5.73;;
1719;SDS011;857;52.872;9.692;2023-04-24T09:46:04;7.83;;;6.60;;
1719;SDS011;857;52.872;9.692;2023-04-24T09:48:32;7.63;;;6.50;;
1719;SDS011;857;52.872;9.692;2023-04-24T09:51:00;10.10;;;6.60;;
1719;SDS011;857;52.872;9.692;2023-04-24T09:53:29;6.93;;;5.13;;
1719;SDS011;857;52.872;9.692;2023-04-24T09:56:02;8.47;;;7.30;;
1719;SDS011;857;52.872;9.692;2023-04-24T09:58:31;7.77;;;6.97;;
1719;SDS011;857;52.872;9.692;2023-04-24T10:00:58;4.40;;;3.60;;
1719;SDS011;857;52.872;9.692;2023-04-24T10:03:26;6.80;;;5.10;;
1719;SDS011;857;52.872;9.692;2023-04-24T10:05:58;7.30;;;6.50;;
1719;SDS011;857;52.872;9.692;2023-04-24T10:08:26;7.20;;;6.50;;
1719;SDS011;857;52.872;9.692;2023-04-24T10:10:53;6.40;;;5.50;;
1719;SDS011;857;52.872;9.692;2023-04-24T10:13:21;7.73;;;6.00;;
1719;SDS011;857;52.872;9.692;2023-04-24T10:15:50;8.97;;;6.70;;
1719;SDS011;857;52.872;9.692;2023-04-24T10:18:18;6.33;;;5.50;;
1719;SDS011;857;52.872;9.692;2023-04-24T10:20:47;6.90;;;5.67;;
1719;SDS011;857;52.872;9.692;2023-04-24T10:23:15;6.60;;;5.90;;
1719;SDS011;857;52.872;9.692;2023-04-24T10:25:44;6.20;;;5.20;;
1719;SDS011;857;52.872;9.692;2023-04-24T10:28:12;10.53;;;7.10;;
1719;SDS011;857;52.872;9.692;2023-04-24T10:30:41;9.00;;;6.80;;
1719;SDS011;857;52.872;9.692;2023-04-24T10:33:11;7.83;;;6.57;;
1719;SDS011;857;52.872;9.692;2023-04-24T10:35:40;6.50;;;5.70;;
1719;SDS011;857;52.872;9.692;2023-04-24T10:38:11;7.20;;;5.20;;
1719;SDS011;857;52.872;9.692;2023-04-24T10:40:39;6.07;;;5.17;;
1719;SDS011;857;52.872;9.692;2023-04-24T10:43:07;6.90;;;5.67;;
1719;SDS011;857;52.872;9.692;2023-04-24T10:45:37;6.40;;;5.03;;
1719;SDS011;857;52.872;9.692;2023-04-24T10:48:05;6.10;;;5.20;;
1719;SDS011;857;52.872;9.692;2023-04-24T10:50:44;6.03;;;5.20;;
1719;SDS011;857;52.872;9.692;2023-04-24T10:55:41;6.13;;;5.53;;
1719;SDS011;857;52.872;9.692;2023-04-24T10:58:09;5.67;;;5.00;;
1719;SDS011;857;52.872;9.692;2023-04-24T11:00:37;6.67;;;6.00;;
1719;SDS011;857;52.872;9.692;2023-04-24T11:03:05;7.57;;;5.30;;
1719;SDS011;857;52.872;9.692;2023-04-24T11:05:50;8.57;;;5.93;;
1719;SDS011;857;52.872;9.692;2023-04-24T11:08:22;5.00;;;4.50;;
1719;SDS011;857;52.872;9.692;2023-04-24T11:10:55;5.40;;;4.90;;
1719;SDS011;857;52.872;9.692;2023-04-24T11:13:24;5.87;;;5.27;;
1719;SDS011;857;52.872;9.692;2023-04-24T11:18:50;6.40;;;4.83;;
1719;SDS011;857;52.872;9.692;2023-04-24T11:21:21;7.73;;;5.50;;
1719;SDS011;857;52.872;9.692;2023-04-24T11:23:49;7.20;;;5.20;;
1719;SDS011;857;52.872;9.692;2023-04-24T11:26:17;4.83;;;4.37;;
1719;SDS011;857;52.872;9.692;2023-04-24T11:28:46;4.93;;;4.33;;
1719;SDS011;857;52.872;9.692;2023-04-24T11:34:05;7.50;;;4.40;;
1719;SDS011;857;52.872;9.692;2023-04-24T11:36:34;5.53;;;5.03;;
1719;SDS011;857;52.872;9.692;2023-04-24T11:39:02;5.10;;;4.60;;
1719;SDS011;857;52.872;9.692;2023-04-24T11:41:29;4.53;;;4.13;;
1719;SDS011;857;52.872;9.692;2023-04-24T11:43:57;4.60;;;4.13;;
1719;SDS011;857;52.872;9.692;2023-04-24T11:46:28;3.60;;;3.27;;
1719;SDS011;857;52.872;9.692;2023-04-24T11:48:56;4.50;;;4.10;;
1719;SDS011;857;52.872;9.692;2023-04-24T11:51:25;3.70;;;3.40;;
1719;SDS011;857;52.872;9.692;2023-04-24T11:53:54;3.73;;;3.00;;
1719;SDS011;857;52.872;9.692;2023-04-24T11:56:22;3.77;;;3.37;;
1719;SDS011;857;52.872;9.692;2023-04-24T11:58:51;3.60;;;3.30;;
1719;SDS011;857;52.872;9.692;2023-04-24T12:01:23;3.13;;;2.93;;
1719;SDS011;857;52.872;9.692;2023-04-24T12:03:51;2.90;;;2.70;;
1719;SDS011;857;52.872;9.692;2023-04-24T12:06:26;3.40;;;3.10;;
1719;SDS011;857;52.872;9.692;2023-04-24T12:08:55;3.20;;;3.00;;
1719;SDS011;857;52.872;9.692;2023-04-24T12:11:24;3.00;;;2.80;;
1719;SDS011;857;52.872;9.692;2023-04-24T12:13:51;3.27;;;2.97;;
1719;SDS011;857;52.872;9.692;2023-04-24T12:16:19;3.47;;;3.17;;
1719;SDS011;857;52.872;9.692;2023-04-24T12:18:47;3.10;;;2.80;;
1719;SDS011;857;52.872;9.692;2023-04-24T12:21:15;6.70;;;2.90;;
1719;SDS011;857;52.872;9.692;2023-04-24T12:23:43;3.03;;;2.60;;
1719;SDS011;857;52.872;9.692;2023-04-24T12:26:12;2.87;;;2.60;;
1719;SDS011;857;52.872;9.692;2023-04-24T12:28:45;2.40;;;2.20;;
1719;SDS011;857;52.872;9.692;2023-04-24T12:31:13;2.60;;;2.30;;
1719;SDS011;857;52.872;9.692;2023-04-24T12:33:41;3.10;;;2.80;;
1719;SDS011;857;52.872;9.692;2023-04-24T12:36:09;2.63;;;2.30;;
1719;SDS011;857;52.872;9.692;2023-04-24T12:38:37;2.87;;;2.50;;
1719;SDS011;857;52.872;9.692;2023-04-24T12:41:07;3.50;;;2.90;;
1719;SDS011;857;52.872;9.692;2023-04-24T12:43:36;2.80;;;2.60;;
1719;SDS011;857;52.872;9.692;2023-04-24T12:46:04;4.10;;;2.50;;
1719;SDS011;857;52.872;9.692;2023-04-24T12:48:32;3.00;;;2.70;;
1719;SDS011;857;52.872;9.692;2023-04-24T12:51:00;2.30;;;2.10;;
1719;SDS011;857;52.872;9.692;2023-04-24T12:53:27;2.53;;;2.33;;
1719;SDS011;857;52.872;9.692;2023-04-24T12:55:56;2.90;;;2.37;;
1719;SDS011;857;52.872;9.692;2023-04-24T12:58:24;3.50;;;2.50;;
1719;SDS011;857;52.872;9.692;2023-04-24T13:00:53;2.43;;;2.23;;
1719;SDS011;857;52.872;9.692;2023-04-24T13:03:20;3.03;;;2.60;;
1719;SDS011;857;52.872;9.692;2023-04-24T13:05:49;2.70;;;2.50;;
1719;SDS011;857;52.872;9.692;2023-04-24T13:08:17;3.10;;;2.80;;
1719;SDS011;857;52.872;9.692;2023-04-24T13:10:44;3.70;;;3.40;;
1719;SDS011;857;52.872;9.692;2023-04-24T13:13:12;2.77;;;2.57;;
1719;SDS011;857;52.872;9.692;2023-04-24T13:15:40;3.23;;;2.93;;
1719;SDS011;857;52.872;9.692;2023-04-24T13:18:09;3.70;;;3.27;;
1719;SDS011;857;52.872;9.692;2023-04-24T13:20:36;3.23;;;2.80;;
1719;SDS011;857;52.872;9.692;2023-04-24T13:23:06;3.17;;;2.80;;
1719;SDS011;857;52.872;9.692;2023-04-24T13:25:34;2.33;;;1.90;;
1719;SDS011;857;52.872;9.692;2023-04-24T13:28:02;3.70;;;2.00;;
1719;SDS011;857;52.872;9.692;2023-04-24T13:30:30;2.67;;;2.13;;
1719;SDS011;857;52.872;9.692;2023-04-24T13:32:58;2.70;;;2.50;;
1719;SDS011;857;52.872;9.692;2023-04-24T13:35:27;2.90;;;2.47;;
1719;SDS011;857;52.872;9.692;2023-04-24T13:37:55;4.73;;;3.03;;
1719;SDS011;857;52.872;9.692;2023-04-24T13:40:22;4.00;;;3.07;;
1719;SDS011;857;52.872;9.692;2023-04-24T13:42:50;3.00;;;2.70;;
1719;SDS011;857;52.872;9.692;2023-04-24T13:45:18;2.60;;;2.20;;
1719;SDS011;857;52.872;9.692;2023-04-24T13:47:46;2.30;;;2.10;;
1719;SDS011;857;52.872;9.692;2023-04-24T13:50:13;2.10;;;1.90;;
1719;SDS011;857;52.872;9.692;2023-04-24T13:52:42;2.17;;;1.83;;
1719;SDS011;857;52.872;9.692;2023-04-24T13:55:10;1.83;;;1.47;;
1719;SDS011;857;52.872;9.692;2023-04-24T13:57:38;2.10;;;1.90;;
1719;SDS011;857;52.872;9.692;2023-04-24T14:00:06;2.57;;;1.80;;
1719;SDS011;857;52.872;9.692;2023-04-24T14:02:35;2.93;;;2.57;;
1719;SDS011;857;52.872;9.692;2023-04-24T14:05:03;3.40;;;3.10;;
1719;SDS011;857;52.872;9.692;2023-04-24T14:07:32;3.83;;;3.37;;
1719;SDS011;857;52.872;9.692;2023-04-24T14:10:01;4.60;;;4.10;;
1719;SDS011;857;52.872;9.692;2023-04-24T14:12:28;3.47;;;3.13;;
1719;SDS011;857;52.872;9.692;2023-04-24T14:14:56;3.30;;;2.83;;
1719;SDS011;857;52.872;9.692;2023-04-24T14:17:23;6.77;;;4.57;;
1719;SDS011;857;52.872;9.692;2023-04-24T14:19:51;5.13;;;2.90;;
1719;SDS011;857;52.872;9.692;2023-04-24T14:22:21;4.93;;;4.20;;
1719;SDS011;857;52.872;9.692;2023-04-24T14:24:49;6.80;;;4.30;;
1719;SDS011;857;52.872;9.692;2023-04-24T14:27:18;5.50;;;4.60;;
1719;SDS011;857;52.872;9.692;2023-04-24T14:29:46;6.77;;;4.17;;
1719;SDS011;857;52.872;9.692;2023-04-24T14:32:13;5.40;;;4.90;;
1719;SDS011;857;52.872;9.692;2023-04-24T14:34:41;5.90;;;4.27;;
1719;SDS011;857;52.872;9.692;2023-04-24T14:37:09;5.87;;;4.60;;
1719;SDS011;857;52.872;9.692;2023-04-24T14:39:36;5.43;;;4.23;;
1719;SDS011;857;52.872;9.692;2023-04-24T14:42:04;5.17;;;4.30;;
1719;SDS011;857;52.872;9.692;2023-04-24T14:44:33;7.27;;;4.40;;
1719;SDS011;857;52.872;9.692;2023-04-24T14:47:01;5.53;;;4.43;;
1719;SDS011;857;52.872;9.692;2023-04-24T14:49:28;6.30;;;4.80;;
1719;SDS011;857;52.872;9.692;2023-04-24T14:51:56;6.13;;;4.83;;
1719;SDS011;857;52.872;9.692;2023-04-24T14:54:23;3.70;;;3.40;;
1719;SDS011;857;52.872;9.692;2023-04-24T14:56:51;6.17;;;4.20;;
1719;SDS011;857;52.872;9.692;2023-04-24T14:59:19;5.20;;;4.37;;
1719;SDS011;857;52.872;9.692;2023-04-24T15:01:48;5.90;;;4.40;;
1719;SDS011;857;52.872;9.692;2023-04-24T15:04:17;7.00;;;4.53;;
1719;SDS011;857;52.872;9.692;2023-04-24T15:06:45;6.70;;;5.00;;
1719;SDS011;857;52.872;9.692;2023-04-24T15:09:13;3.17;;;2.80;;
1719;SDS011;857;52.872;9.692;2023-04-24T15:11:41;7.13;;;4.77;;
1719;SDS011;857;52.872;9.692;2023-04-24T15:14:08;6.10;;;5.23;;
1719;SDS011;857;52.872;9.692;2023-04-24T15:16:36;5.07;;;4.10;;
1719;SDS011;857;52.872;9.692;2023-04-24T15:19:05;8.50;;;4.30;;
1719;SDS011;857;52.872;9.692;2023-04-24T15:21:33;6.00;;;4.10;;
1719;SDS011;857;52.872;9.692;2023-04-24T15:24:00;5.50;;;4.03;;
1719;SDS011;857;52.872;9.692;2023-04-24T15:26:28;7.03;;;4.00;;
1719;SDS011;857;52.872;9.692;2023-04-24T15:28:56;4.43;;;4.03;;
1719;SDS011;857;52.872;9.692;2023-04-24T15:31:23;5.63;;;3.80;;
1719;SDS011;857;52.872;9.692;2023-04-24T15:33:51;5.90;;;4.10;;
1719;SDS011;857;52.872;9.692;2023-04-24T15:36:20;5.90;;;4.30;;
1719;SDS011;857;52.872;9.692;2023-04-24T15:38:48;6.50;;;4.40;;
1719;SDS011;857;52.872;9.692;2023-04-24T15:41:16;4.57;;;3.67;;
1719;SDS011;857;52.872;9.692;2023-04-24T15:43:45;9.03;;;3.80;;
1719;SDS011;857;52.872;9.692;2023-04-24T15:46:13;4.53;;;3.73;;
1719;SDS011;857;52.872;9.692;2023-04-24T15:48:41;4.63;;;3.90;;
1719;SDS011;857;52.872;9.692;2023-04-24T15:51:09;4.70;;;3.43;;